Terminal Aerodrome Forecast
Issued by NWS

Home | Current Version | Previous Version | Text Only | Print | Product List | Glossary On
Versions: 1 2 3 4 5 6 7 8 9 10 11 12 13 14 15 16 17 18 19 20 21 22 23
000
FTUS43 KDLH 290500
TAFBRD
TAF
KBRD 290524Z 2906/3006 19009KT P6SM VCTS SCT030 BKN035CB
      TEMPO 2907/2911 6SM -TSRA BR BKN025CB OVC060
     FM291100 VRB04KT 6SM -SHRA OVC015
      TEMPO 2911/2915 4SM TSRA BR OVC020CB
     FM291500 35010G18KT 4SM -TSRA BR OVC015CB
     FM292100 35010G18KT P6SM SCT030 BKN150=

USA.gov is the U.S. government's official web portal to all federal, state and local government web resources and services.